sensor_id;sensor_type;location;lat;lon;timestamp;pressure;altitude;pressure_sealevel;temperature;humidity
498;BME280;39559;48.630;9.162;2023-04-24T00:01:43;96477.97;;;8.32;100.00
498;BME280;39559;48.630;9.162;2023-04-24T00:04:09;96482.31;;;8.14;100.00
498;BME280;39559;48.630;9.162;2023-04-24T00:06:37;96478.28;;;8.08;100.00
498;BME280;39559;48.630;9.162;2023-04-24T00:09:03;96486.94;;;8.07;100.00
498;BME280;39559;48.630;9.162;2023-04-24T00:11:35;96474.16;;;8.22;100.00
498;BME280;39559;48.630;9.162;2023-04-24T00:14:02;96487.25;;;8.19;100.00
498;BME280;39559;48.630;9.162;2023-04-24T00:16:31;96490.06;;;7.97;100.00
498;BME280;39559;48.630;9.162;2023-04-24T00:19:09;96493.75;;;7.91;100.00
498;BME280;39559;48.630;9.162;2023-04-24T00:23:18;96498.66;;;7.97;100.00
498;BME280;39559;48.630;9.162;2023-04-24T00:25:43;96503.75;;;8.16;100.00
498;BME280;39559;48.630;9.162;2023-04-24T00:28:09;96503.69;;;8.35;100.00
498;BME280;39559;48.630;9.162;2023-04-24T00:30:34;96491.16;;;8.45;100.00
498;BME280;39559;48.630;9.162;2023-04-24T00:33:01;96484.91;;;8.67;100.00
498;BME280;39559;48.630;9.162;2023-04-24T00:35:26;96488.09;;;8.72;100.00
498;BME280;39559;48.630;9.162;2023-04-24T00:37:52;96485.78;;;8.83;100.00
498;BME280;39559;48.630;9.162;2023-04-24T00:40:18;96478.06;;;8.99;100.00
498;BME280;39559;48.630;9.162;2023-04-24T00:42:43;96476.50;;;9.12;100.00
498;BME280;39559;48.630;9.162;2023-04-24T00:47:13;96480.94;;;9.26;100.00
498;BME280;39559;48.630;9.162;2023-04-24T00:49:39;96470.25;;;9.32;100.00
498;BME280;39559;48.630;9.162;2023-04-24T00:52:05;96468.56;;;9.31;100.00
498;BME280;39559;48.630;9.162;2023-04-24T00:54:36;96460.63;;;9.34;100.00
498;BME280;39559;48.630;9.162;2023-04-24T00:57:05;96464.34;;;9.46;100.00
498;BME280;39559;48.630;9.162;2023-04-24T00:59:31;96461.53;;;9.49;100.00
498;BME280;39559;48.630;9.162;2023-04-24T01:01:58;96455.63;;;9.47;100.00
498;BME280;39559;48.630;9.162;2023-04-24T01:04:24;96453.28;;;9.43;100.00
498;BME280;39559;48.630;9.162;2023-04-24T01:06:51;96450.13;;;9.37;100.00
498;BME280;39559;48.630;9.162;2023-04-24T01:11:11;96453.78;;;9.49;100.00
498;BME280;39559;48.630;9.162;2023-04-24T01:13:37;96449.03;;;9.41;100.00
498;BME280;39559;48.630;9.162;2023-04-24T01:16:03;96447.75;;;9.33;100.00
498;BME280;39559;48.630;9.162;2023-04-24T01:18:28;96440.84;;;9.33;100.00
498;BME280;39559;48.630;9.162;2023-04-24T01:20:57;96445.84;;;9.36;100.00
498;BME280;39559;48.630;9.162;2023-04-24T01:23:23;96440.91;;;9.32;100.00
498;BME280;39559;48.630;9.162;2023-04-24T01:25:50;96446.09;;;9.32;100.00
498;BME280;39559;48.630;9.162;2023-04-24T01:28:17;96453.88;;;9.32;100.00
498;BME280;39559;48.630;9.162;2023-04-24T01:30:45;96442.09;;;9.26;100.00
498;BME280;39559;48.630;9.162;2023-04-24T01:35:08;96434.56;;;9.21;100.00
498;BME280;39559;48.630;9.162;2023-04-24T01:37:33;96427.38;;;9.27;100.00
498;BME280;39559;48.630;9.162;2023-04-24T01:39:59;96432.03;;;9.20;100.00
498;BME280;39559;48.630;9.162;2023-04-24T01:42:25;96428.09;;;9.13;100.00
498;BME280;39559;48.630;9.162;2023-04-24T01:44:51;96432.47;;;9.12;100.00
498;BME280;39559;48.630;9.162;2023-04-24T01:47:17;96430.03;;;9.09;100.00
498;BME280;39559;48.630;9.162;2023-04-24T01:49:42;96427.03;;;9.01;100.00
498;BME280;39559;48.630;9.162;2023-04-24T01:52:08;96426.28;;;8.99;100.00
498;BME280;39559;48.630;9.162;2023-04-24T01:54:34;96432.53;;;9.11;100.00
498;BME280;39559;48.630;9.162;2023-04-24T01:59:05;96439.75;;;9.21;100.00
498;BME280;39559;48.630;9.162;2023-04-24T02:01:35;96440.31;;;9.27;100.00
498;BME280;39559;48.630;9.162;2023-04-24T02:04:04;96441.25;;;9.26;100.00
498;BME280;39559;48.630;9.162;2023-04-24T02:06:30;96448.25;;;9.23;100.00
498;BME280;39559;48.630;9.162;2023-04-24T02:08:58;96445.41;;;9.12;100.00
498;BME280;39559;48.630;9.162;2023-04-24T02:11:24;96449.66;;;8.97;100.00
498;BME280;39559;48.630;9.162;2023-04-24T02:13:50;96440.84;;;8.84;100.00
498;BME280;39559;48.630;9.162;2023-04-24T02:16:17;96437.16;;;8.72;100.00
498;BME280;39559;48.630;9.162;2023-04-24T02:18:43;96434.38;;;8.59;100.00
498;BME280;39559;48.630;9.162;2023-04-24T02:23:03;96432.69;;;8.41;100.00
498;BME280;39559;48.630;9.162;2023-04-24T02:25:29;96439.03;;;8.35;100.00
498;BME280;39559;48.630;9.162;2023-04-24T02:27:55;96435.16;;;8.26;100.00
498;BME280;39559;48.630;9.162;2023-04-24T02:30:20;96431.72;;;8.08;100.00
498;BME280;39559;48.630;9.162;2023-04-24T02:32:46;96437.97;;;8.04;100.00
498;BME280;39559;48.630;9.162;2023-04-24T02:35:12;96440.09;;;8.14;100.00
498;BME280;39559;48.630;9.162;2023-04-24T02:37:37;96433.56;;;8.06;100.00
498;BME280;39559;48.630;9.162;2023-04-24T02:40:04;96432.78;;;8.22;100.00
498;BME280;39559;48.630;9.162;2023-04-24T02:42:31;96435.53;;;8.19;100.00
498;BME280;39559;48.630;9.162;2023-04-24T02:47:01;96436.59;;;8.32;100.00
498;BME280;39559;48.630;9.162;2023-04-24T02:49:26;96442.66;;;8.31;100.00
498;BME280;39559;48.630;9.162;2023-04-24T02:51:52;96435.28;;;8.41;100.00
498;BME280;39559;48.630;9.162;2023-04-24T02:54:18;96437.94;;;8.39;100.00
498;BME280;39559;48.630;9.162;2023-04-24T02:56:43;96440.41;;;8.42;100.00
498;BME280;39559;48.630;9.162;2023-04-24T02:59:09;96440.41;;;8.42;100.00
498;BME280;39559;48.630;9.162;2023-04-24T03:01:35;96446.44;;;8.43;100.00
498;BME280;39559;48.630;9.162;2023-04-24T03:04:01;96443.19;;;8.38;100.00
498;BME280;39559;48.630;9.162;2023-04-24T03:06:27;96437.59;;;8.30;100.00
498;BME280;39559;48.630;9.162;2023-04-24T03:10:59;96430.03;;;8.25;100.00
498;BME280;39559;48.630;9.162;2023-04-24T03:13:25;96424.94;;;8.23;100.00
498;BME280;39559;48.630;9.162;2023-04-24T03:15:50;96426.03;;;8.19;100.00
498;BME280;39559;48.630;9.162;2023-04-24T03:18:16;96429.75;;;8.14;100.00
498;BME280;39559;48.630;9.162;2023-04-24T03:20:42;96420.56;;;8.08;100.00
498;BME280;39559;48.630;9.162;2023-04-24T03:23:07;96417.28;;;8.04;100.00
498;BME280;39559;48.630;9.162;2023-04-24T03:25:33;96422.47;;;8.04;100.00
498;BME280;39559;48.630;9.162;2023-04-24T03:27:58;96415.47;;;8.06;100.00
498;BME280;39559;48.630;9.162;2023-04-24T03:30:24;96420.09;;;8.17;100.00
498;BME280;39559;48.630;9.162;2023-04-24T03:34:57;96422.75;;;8.16;100.00
498;BME280;39559;48.630;9.162;2023-04-24T03:37:23;96417.13;;;8.07;100.00
498;BME280;39559;48.630;9.162;2023-04-24T03:39:49;96423.22;;;8.06;100.00
498;BME280;39559;48.630;9.162;2023-04-24T03:42:15;96414.63;;;8.06;100.00
498;BME280;39559;48.630;9.162;2023-04-24T03:44:40;96408.91;;;7.99;100.00
498;BME280;39559;48.630;9.162;2023-04-24T03:47:06;96421.97;;;7.96;100.00
498;BME280;39559;48.630;9.162;2023-04-24T03:49:31;96414.47;;;7.92;100.00
498;BME280;39559;48.630;9.162;2023-04-24T03:51:57;96411.66;;;7.96;100.00
498;BME280;39559;48.630;9.162;2023-04-24T03:54:22;96413.03;;;7.86;100.00
498;BME280;39559;48.630;9.162;2023-04-24T03:58:54;96413.31;;;7.80;100.00
498;BME280;39559;48.630;9.162;2023-04-24T04:01:20;96418.03;;;7.72;100.00
498;BME280;39559;48.630;9.162;2023-04-24T04:03:47;96421.50;;;7.71;100.00
498;BME280;39559;48.630;9.162;2023-04-24T04:06:13;96429.25;;;7.71;100.00
498;BME280;39559;48.630;9.162;2023-04-24T04:08:38;96437.31;;;7.64;100.00
498;BME280;39559;48.630;9.162;2023-04-24T04:11:04;96438.97;;;7.65;100.00
498;BME280;39559;48.630;9.162;2023-04-24T04:13:30;96435.50;;;7.66;100.00
498;BME280;39559;48.630;9.162;2023-04-24T04:15:56;96439.59;;;7.71;100.00
498;BME280;39559;48.630;9.162;2023-04-24T04:18:21;96446.00;;;7.81;100.00
498;BME280;39559;48.630;9.162;2023-04-24T04:22:53;96436.75;;;7.94;100.00
498;BME280;39559;48.630;9.162;2023-04-24T04:25:18;96444.03;;;8.03;100.00
498;BME280;39559;48.630;9.162;2023-04-24T04:27:45;96450.66;;;8.09;100.00
498;BME280;39559;48.630;9.162;2023-04-24T04:30:13;96460.66;;;8.17;100.00
498;BME280;39559;48.630;9.162;2023-04-24T04:32:39;96455.47;;;8.17;100.00
498;BME280;39559;48.630;9.162;2023-04-24T04:35:05;96459.63;;;8.19;100.00
498;BME280;39559;48.630;9.162;2023-04-24T04:37:34;96471.81;;;8.17;100.00
498;BME280;39559;48.630;9.162;2023-04-24T04:39:59;96468.47;;;8.15;100.00
498;BME280;39559;48.630;9.162;2023-04-24T04:42:25;96480.53;;;8.15;100.00
498;BME280;39559;48.630;9.162;2023-04-24T04:46:51;96499.25;;;8.20;100.00
498;BME280;39559;48.630;9.162;2023-04-24T04:49:18;96502.09;;;8.33;100.00
498;BME280;39559;48.630;9.162;2023-04-24T04:51:46;96520.25;;;8.31;100.00
498;BME280;39559;48.630;9.162;2023-04-24T04:54:12;96524.94;;;8.05;100.00
498;BME280;39559;48.630;9.162;2023-04-24T04:56:37;96536.88;;;7.91;100.00
498;BME280;39559;48.630;9.162;2023-04-24T04:59:03;96535.84;;;7.76;100.00
498;BME280;39559;48.630;9.162;2023-04-24T05:01:29;96537.03;;;7.68;100.00
498;BME280;39559;48.630;9.162;2023-04-24T05:03:55;96531.88;;;7.49;100.00
498;BME280;39559;48.630;9.162;2023-04-24T05:06:21;96551.50;;;7.54;100.00
498;BME280;39559;48.630;9.162;2023-04-24T05:10:49;96556.03;;;7.29;100.00
498;BME280;39559;48.630;9.162;2023-04-24T05:13:15;96559.09;;;7.19;100.00
498;BME280;39559;48.630;9.162;2023-04-24T05:15:40;96563.94;;;7.06;100.00
498;BME280;39559;48.630;9.162;2023-04-24T05:18:06;96561.44;;;7.04;100.00
498;BME280;39559;48.630;9.162;2023-04-24T05:20:31;96555.63;;;6.99;100.00
498;BME280;39559;48.630;9.162;2023-04-24T05:22:57;96575.28;;;7.02;100.00
498;BME280;39559;48.630;9.162;2023-04-24T05:25:22;96572.78;;;7.00;100.00
498;BME280;39559;48.630;9.162;2023-04-24T05:27:48;96575.03;;;7.08;100.00
498;BME280;39559;48.630;9.162;2023-04-24T05:30:14;96580.28;;;7.06;100.00
498;BME280;39559;48.630;9.162;2023-04-24T05:34:47;96598.84;;;7.15;100.00
498;BME280;39559;48.630;9.162;2023-04-24T05:37:13;96604.97;;;7.12;100.00
498;BME280;39559;48.630;9.162;2023-04-24T05:39:38;96605.69;;;7.16;100.00
498;BME280;39559;48.630;9.162;2023-04-24T05:42:06;96602.06;;;7.20;100.00
498;BME280;39559;48.630;9.162;2023-04-24T05:44:31;96610.16;;;7.31;100.00
498;BME280;39559;48.630;9.162;2023-04-24T05:46:57;96606.41;;;7.38;100.00
498;BME280;39559;48.630;9.162;2023-04-24T05:49:23;96606.00;;;7.47;100.00
498;BME280;39559;48.630;9.162;2023-04-24T05:51:48;96610.97;;;7.52;100.00
498;BME280;39559;48.630;9.162;2023-04-24T05:54:14;96613.56;;;7.52;100.00
498;BME280;39559;48.630;9.162;2023-04-24T05:58:47;96614.63;;;7.48;100.00
498;BME280;39559;48.630;9.162;2023-04-24T06:01:40;96618.94;;;7.47;100.00
498;BME280;39559;48.630;9.162;2023-04-24T06:04:07;96624.38;;;7.60;100.00
498;BME280;39559;48.630;9.162;2023-04-24T06:06:35;96630.81;;;7.71;100.00
498;BME280;39559;48.630;9.162;2023-04-24T06:09:00;96623.47;;;7.80;100.00
498;BME280;39559;48.630;9.162;2023-04-24T06:11:26;96623.72;;;7.76;100.00
498;BME280;39559;48.630;9.162;2023-04-24T06:13:51;96626.59;;;7.69;100.00
498;BME280;39559;48.630;9.162;2023-04-24T06:16:17;96629.28;;;7.66;100.00
498;BME280;39559;48.630;9.162;2023-04-24T06:18:43;96624.97;;;7.67;100.00
498;BME280;39559;48.630;9.162;2023-04-24T06:22:47;96617.13;;;7.68;100.00
498;BME280;39559;48.630;9.162;2023-04-24T06:28:23;96617.63;;;7.96;100.00
498;BME280;39559;48.630;9.162;2023-04-24T06:30:53;96619.91;;;8.02;100.00
498;BME280;39559;48.630;9.162;2023-04-24T06:33:20;96615.81;;;8.17;100.00
498;BME280;39559;48.630;9.162;2023-04-24T06:35:48;96615.06;;;8.32;100.00
498;BME280;39559;48.630;9.162;2023-04-24T06:38:16;96608.97;;;8.52;100.00
498;BME280;39559;48.630;9.162;2023-04-24T06:40:43;96609.59;;;8.92;100.00
498;BME280;39559;48.630;9.162;2023-04-24T06:43:11;96607.41;;;8.84;100.00
498;BME280;39559;48.630;9.162;2023-04-24T06:46:47;96601.53;;;8.81;100.00
498;BME280;39559;48.630;9.162;2023-04-24T06:49:12;96608.16;;;9.04;100.00
498;BME280;39559;48.630;9.162;2023-04-24T06:51:41;96607.47;;;9.00;100.00
498;BME280;39559;48.630;9.162;2023-04-24T06:54:06;96606.75;;;9.32;100.00
498;BME280;39559;48.630;9.162;2023-04-24T06:56:32;96613.03;;;9.77;100.00
498;BME280;39559;48.630;9.162;2023-04-24T06:58:59;96616.47;;;9.44;100.00
498;BME280;39559;48.630;9.162;2023-04-24T07:01:25;96619.47;;;9.52;100.00
498;BME280;39559;48.630;9.162;2023-04-24T07:03:50;96617.19;;;9.30;100.00
498;BME280;39559;48.630;9.162;2023-04-24T07:06:16;96621.47;;;8.79;100.00
498;BME280;39559;48.630;9.162;2023-04-24T07:10:40;96617.56;;;8.53;100.00
498;BME280;39559;48.630;9.162;2023-04-24T07:13:06;96616.03;;;8.49;100.00
498;BME280;39559;48.630;9.162;2023-04-24T07:15:32;96620.66;;;8.42;100.00
498;BME280;39559;48.630;9.162;2023-04-24T07:17:57;96626.81;;;8.39;100.00
498;BME280;39559;48.630;9.162;2023-04-24T07:20:23;96634.25;;;8.28;100.00
498;BME280;39559;48.630;9.162;2023-04-24T07:22:48;96648.16;;;8.06;100.00
498;BME280;39559;48.630;9.162;2023-04-24T07:25:14;96662.06;;;7.85;100.00
498;BME280;39559;48.630;9.162;2023-04-24T07:27:40;96676.69;;;7.86;100.00
498;BME280;39559;48.630;9.162;2023-04-24T07:30:06;96668.31;;;7.60;100.00
498;BME280;39559;48.630;9.162;2023-04-24T07:34:38;96671.50;;;7.46;100.00
498;BME280;39559;48.630;9.162;2023-04-24T07:37:04;96679.69;;;7.56;100.00
498;BME280;39559;48.630;9.162;2023-04-24T07:39:30;96678.13;;;8.11;100.00
498;BME280;39559;48.630;9.162;2023-04-24T07:41:55;96668.69;;;8.29;100.00
498;BME280;39559;48.630;9.162;2023-04-24T07:44:21;96680.81;;;8.28;100.00
498;BME280;39559;48.630;9.162;2023-04-24T07:46:47;96677.41;;;8.64;100.00
498;BME280;39559;48.630;9.162;2023-04-24T07:49:12;96670.13;;;8.72;100.00
498;BME280;39559;48.630;9.162;2023-04-24T07:51:39;96671.81;;;8.91;100.00
498;BME280;39559;48.630;9.162;2023-04-24T07:54:05;96680.78;;;8.83;100.00
498;BME280;39559;48.630;9.162;2023-04-24T07:58:37;96685.78;;;8.69;100.00
498;BME280;39559;48.630;9.162;2023-04-24T08:01:02;96695.72;;;8.96;100.00
498;BME280;39559;48.630;9.162;2023-04-24T08:03:28;96697.25;;;9.00;100.00
498;BME280;39559;48.630;9.162;2023-04-24T08:05:53;96698.31;;;9.31;100.00
498;BME280;39559;48.630;9.162;2023-04-24T08:08:23;96699.72;;;9.20;100.00
498;BME280;39559;48.630;9.162;2023-04-24T08:10:49;96697.34;;;9.16;100.00
498;BME280;39559;48.630;9.162;2023-04-24T08:13:14;96701.59;;;8.99;100.00
498;BME280;39559;48.630;9.162;2023-04-24T08:15:40;96706.63;;;9.20;100.00
498;BME280;39559;48.630;9.162;2023-04-24T08:18:05;96703.81;;;9.25;100.00
498;BME280;39559;48.630;9.162;2023-04-24T08:22:35;96721.34;;;9.37;100.00
498;BME280;39559;48.630;9.162;2023-04-24T08:25:01;96718.06;;;9.33;100.00
498;BME280;39559;48.630;9.162;2023-04-24T08:27:27;96714.84;;;9.46;100.00
498;BME280;39559;48.630;9.162;2023-04-24T08:29:57;96709.66;;;9.63;100.00
498;BME280;39559;48.630;9.162;2023-04-24T08:32:22;96719.53;;;9.72;100.00
498;BME280;39559;48.630;9.162;2023-04-24T08:34:48;96720.56;;;9.70;100.00
498;BME280;39559;48.630;9.162;2023-04-24T08:37:13;96721.91;;;9.77;100.00
498;BME280;39559;48.630;9.162;2023-04-24T08:39:39;96736.88;;;9.54;100.00
498;BME280;39559;48.630;9.162;2023-04-24T08:42:05;96729.00;;;9.73;100.00
498;BME280;39559;48.630;9.162;2023-04-24T08:46:33;96731.06;;;9.84;100.00
498;BME280;39559;48.630;9.162;2023-04-24T08:48:59;96739.72;;;10.16;100.00
498;BME280;39559;48.630;9.162;2023-04-24T08:51:26;96729.63;;;10.28;100.00
498;BME280;39559;48.630;9.162;2023-04-24T08:53:53;96729.25;;;10.35;100.00
498;BME280;39559;48.630;9.162;2023-04-24T08:56:21;96733.72;;;10.16;99.59
498;BME280;39559;48.630;9.162;2023-04-24T08:58:50;96756.41;;;9.95;96.39
498;BME280;39559;48.630;9.162;2023-04-24T09:01:18;96766.16;;;9.56;96.94
498;BME280;39559;48.630;9.162;2023-04-24T09:03:49;96756.31;;;9.63;98.02
498;BME280;39559;48.630;9.162;2023-04-24T09:06:17;96756.03;;;10.18;99.64
498;BME280;39559;48.630;9.162;2023-04-24T09:10:31;96754.06;;;10.57;91.43
498;BME280;39559;48.630;9.162;2023-04-24T09:12:59;96754.78;;;10.91;94.07
498;BME280;39559;48.630;9.162;2023-04-24T09:15:27;96762.03;;;11.00;90.80
498;BME280;39559;48.630;9.162;2023-04-24T09:17:53;96769.97;;;10.83;86.66
498;BME280;39559;48.630;9.162;2023-04-24T09:20:18;96758.38;;;11.04;86.28
498;BME280;39559;48.630;9.162;2023-04-24T09:22:45;96756.44;;;11.38;89.87
498;BME280;39559;48.630;9.162;2023-04-24T09:25:10;96761.22;;;11.00;82.81
498;BME280;39559;48.630;9.162;2023-04-24T09:27:42;96754.50;;;11.11;85.34
498;BME280;39559;48.630;9.162;2023-04-24T09:30:09;96749.75;;;11.34;85.91
498;BME280;39559;48.630;9.162;2023-04-24T09:34:29;96764.91;;;11.72;85.85
498;BME280;39559;48.630;9.162;2023-04-24T09:36:54;96775.78;;;11.18;80.89
498;BME280;39559;48.630;9.162;2023-04-24T09:39:20;96769.66;;;11.19;83.95
498;BME280;39559;48.630;9.162;2023-04-24T09:41:53;96762.09;;;10.84;83.53
498;BME280;39559;48.630;9.162;2023-04-24T09:44:22;96779.22;;;10.39;77.69
498;BME280;39559;48.630;9.162;2023-04-24T09:46:52;96786.09;;;10.56;75.41
498;BME280;39559;48.630;9.162;2023-04-24T09:49:26;96775.63;;;10.42;73.86
498;BME280;39559;48.630;9.162;2023-04-24T09:51:52;96779.75;;;10.62;75.45
498;BME280;39559;48.630;9.162;2023-04-24T09:54:27;96769.19;;;11.43;74.91
498;BME280;39559;48.630;9.162;2023-04-24T09:58:28;96770.44;;;12.10;71.09
498;BME280;39559;48.630;9.162;2023-04-24T10:00:56;96771.66;;;12.34;70.76
498;BME280;39559;48.630;9.162;2023-04-24T10:03:25;96781.03;;;12.07;68.36
498;BME280;39559;48.630;9.162;2023-04-24T10:05:53;96794.69;;;11.66;69.85
498;BME280;39559;48.630;9.162;2023-04-24T10:08:20;96787.97;;;11.62;68.15
498;BME280;39559;48.630;9.162;2023-04-24T10:10:46;96789.31;;;11.39;67.99
498;BME280;39559;48.630;9.162;2023-04-24T10:13:13;96798.22;;;11.35;69.75
498;BME280;39559;48.630;9.162;2023-04-24T10:15:40;96784.13;;;11.39;71.99
498;BME280;39559;48.630;9.162;2023-04-24T10:18:08;96781.91;;;11.47;70.16
498;BME280;39559;48.630;9.162;2023-04-24T10:22:25;96806.09;;;11.64;66.10
498;BME280;39559;48.630;9.162;2023-04-24T10:24:52;96816.53;;;11.02;66.14
498;BME280;39559;48.630;9.162;2023-04-24T10:27:17;96816.38;;;10.89;67.38
498;BME280;39559;48.630;9.162;2023-04-24T10:29:47;96817.31;;;11.50;68.21
498;BME280;39559;48.630;9.162;2023-04-24T10:32:14;96821.34;;;11.40;67.72
498;BME280;39559;48.630;9.162;2023-04-24T10:34:40;96824.69;;;11.42;67.64
498;BME280;39559;48.630;9.162;2023-04-24T10:37:06;96824.91;;;11.23;68.57
498;BME280;39559;48.630;9.162;2023-04-24T10:39:32;96836.16;;;10.91;69.35
498;BME280;39559;48.630;9.162;2023-04-24T10:41:58;96834.38;;;10.76;70.53
498;BME280;39559;48.630;9.162;2023-04-24T10:46:27;96833.78;;;10.71;73.76
498;BME280;39559;48.630;9.162;2023-04-24T10:48:54;96836.63;;;10.66;72.63
498;BME280;39559;48.630;9.162;2023-04-24T10:51:22;96837.63;;;10.64;72.31
498;BME280;39559;48.630;9.162;2023-04-24T10:53:51;96841.16;;;10.79;75.92
498;BME280;39559;48.630;9.162;2023-04-24T10:56:17;96851.22;;;10.85;76.46
498;BME280;39559;48.630;9.162;2023-04-24T10:58:50;96857.22;;;10.53;77.03
498;BME280;39559;48.630;9.162;2023-04-24T11:03:57;96861.09;;;9.94;77.23
498;BME280;39559;48.630;9.162;2023-04-24T11:06:30;96866.38;;;10.26;79.58
498;BME280;39559;48.630;9.162;2023-04-24T11:10:27;96867.63;;;10.36;79.70
498;BME280;39559;48.630;9.162;2023-04-24T11:12:52;96855.88;;;10.62;79.59
498;BME280;39559;48.630;9.162;2023-04-24T11:15:18;96859.78;;;10.87;79.47
498;BME280;39559;48.630;9.162;2023-04-24T11:17:45;96863.31;;;11.18;75.48
498;BME280;39559;48.630;9.162;2023-04-24T11:20:15;96854.97;;;10.95;73.91
498;BME280;39559;48.630;9.162;2023-04-24T11:22:41;96867.75;;;11.16;77.10
498;BME280;39559;48.630;9.162;2023-04-24T11:25:09;96867.63;;;11.33;76.46
498;BME280;39559;48.630;9.162;2023-04-24T11:27:40;96858.09;;;11.02;74.46
498;BME280;39559;48.630;9.162;2023-04-24T11:30:08;96868.09;;;10.93;76.79
498;BME280;39559;48.630;9.162;2023-04-24T11:34:20;96881.25;;;11.06;76.07
498;BME280;39559;48.630;9.162;2023-04-24T11:36:47;96872.25;;;10.96;77.59
498;BME280;39559;48.630;9.162;2023-04-24T11:39:13;96870.81;;;10.74;76.77
498;BME280;39559;48.630;9.162;2023-04-24T11:41:39;96895.91;;;10.58;77.41
498;BME280;39559;48.630;9.162;2023-04-24T11:44:09;96897.94;;;10.35;79.99
498;BME280;39559;48.630;9.162;2023-04-24T11:46:35;96895.50;;;10.32;77.97
498;BME280;39559;48.630;9.162;2023-04-24T11:49:03;96905.56;;;10.21;77.88
498;BME280;39559;48.630;9.162;2023-04-24T11:51:28;96900.66;;;10.15;77.09
498;BME280;39559;48.630;9.162;2023-04-24T11:53:55;96908.69;;;10.28;77.25
498;BME280;39559;48.630;9.162;2023-04-24T11:58:21;96896.88;;;10.89;76.12
498;BME280;39559;48.630;9.162;2023-04-24T12:00:56;96897.75;;;11.05;75.32
498;BME280;39559;48.630;9.162;2023-04-24T12:03:23;96890.28;;;10.99;73.55
498;BME280;39559;48.630;9.162;2023-04-24T12:05:48;96897.34;;;11.29;75.00
498;BME280;39559;48.630;9.162;2023-04-24T12:08:29;96906.00;;;10.64;74.87
498;BME280;39559;48.630;9.162;2023-04-24T12:10:55;96914.66;;;10.81;73.46
498;BME280;39559;48.630;9.162;2023-04-24T12:13:21;96907.53;;;10.51;74.86
498;BME280;39559;48.630;9.162;2023-04-24T12:15:46;96907.59;;;10.49;76.18
498;BME280;39559;48.630;9.162;2023-04-24T12:18:12;96912.19;;;10.27;75.53
498;BME280;39559;48.630;9.162;2023-04-24T12:22:15;96909.78;;;10.41;76.71
498;BME280;39559;48.630;9.162;2023-04-24T12:25:03;96913.47;;;10.53;76.38
498;BME280;39559;48.630;9.162;2023-04-24T12:27:31;96913.09;;;10.26;76.56
498;BME280;39559;48.630;9.162;2023-04-24T12:30:00;96912.22;;;10.44;77.46
498;BME280;39559;48.630;9.162;2023-04-24T12:32:26;96913.34;;;10.38;81.02
498;BME280;39559;48.630;9.162;2023-04-24T12:34:53;96930.44;;;9.90;81.15
498;BME280;39559;48.630;9.162;2023-04-24T12:37:19;96918.81;;;10.15;82.91
498;BME280;39559;48.630;9.162;2023-04-24T12:40:06;96927.84;;;10.08;78.76
498;BME280;39559;48.630;9.162;2023-04-24T12:42:32;96919.47;;;10.03;80.56
498;BME280;39559;48.630;9.162;2023-04-24T12:46:11;96913.34;;;10.38;82.89
498;BME280;39559;48.630;9.162;2023-04-24T12:48:37;96912.31;;;10.92;82.40
498;BME280;39559;48.630;9.162;2023-04-24T12:51:02;96909.31;;;11.16;80.05
498;BME280;39559;48.630;9.162;2023-04-24T12:53:28;96919.63;;;11.01;76.57
498;BME280;39559;48.630;9.162;2023-04-24T12:55:57;96922.88;;;10.89;80.14
498;BME280;39559;48.630;9.162;2023-04-24T12:58:22;96928.53;;;11.45;84.00
498;BME280;39559;48.630;9.162;2023-04-24T13:00:48;96913.31;;;11.69;79.44
498;BME280;39559;48.630;9.162;2023-04-24T13:03:14;96911.34;;;11.26;78.18
498;BME280;39559;48.630;9.162;2023-04-24T13:05:40;96907.72;;;12.37;83.83
498;BME280;39559;48.630;9.162;2023-04-24T13:10:09;96901.69;;;11.28;78.13
498;BME280;39559;48.630;9.162;2023-04-24T13:12:35;96895.63;;;11.44;73.95
498;BME280;39559;48.630;9.162;2023-04-24T13:15:00;96916.28;;;11.47;77.74
498;BME280;39559;48.630;9.162;2023-04-24T13:17:26;96908.81;;;11.09;76.59
498;BME280;39559;48.630;9.162;2023-04-24T13:19:54;96902.84;;;10.91;75.73
498;BME280;39559;48.630;9.162;2023-04-24T13:22:20;96897.41;;;10.62;78.20
498;BME280;39559;48.630;9.162;2023-04-24T13:24:46;96906.63;;;10.52;82.76
498;BME280;39559;48.630;9.162;2023-04-24T13:27:14;96905.88;;;10.66;81.34
498;BME280;39559;48.630;9.162;2023-04-24T13:29:40;96905.31;;;10.76;78.75
498;BME280;39559;48.630;9.162;2023-04-24T13:34:05;96909.91;;;10.55;77.12
498;BME280;39559;48.630;9.162;2023-04-24T13:36:30;96907.72;;;10.48;79.38
498;BME280;39559;48.630;9.162;2023-04-24T13:38:56;96906.50;;;10.71;77.70
498;BME280;39559;48.630;9.162;2023-04-24T13:41:22;96902.97;;;10.38;77.01
498;BME280;39559;48.630;9.162;2023-04-24T13:43:47;96907.25;;;10.73;77.28
498;BME280;39559;48.630;9.162;2023-04-24T13:46:13;96903.19;;;10.85;79.06
498;BME280;39559;48.630;9.162;2023-04-24T13:48:38;96897.72;;;10.73;78.39
498;BME280;39559;48.630;9.162;2023-04-24T13:51:04;96905.94;;;10.82;78.72
498;BME280;39559;48.630;9.162;2023-04-24T13:53:30;96908.47;;;10.66;77.36
498;BME280;39559;48.630;9.162;2023-04-24T13:58:03;96906.97;;;10.62;79.49
498;BME280;39559;48.630;9.162;2023-04-24T14:00:29;96906.50;;;10.37;76.67
498;BME280;39559;48.630;9.162;2023-04-24T14:02:54;96901.75;;;10.28;76.84
498;BME280;39559;48.630;9.162;2023-04-24T14:05:20;96898.22;;;10.29;77.35
498;BME280;39559;48.630;9.162;2023-04-24T14:07:47;96893.81;;;10.31;77.29
498;BME280;39559;48.630;9.162;2023-04-24T14:10:13;96898.31;;;10.28;79.58
498;BME280;39559;48.630;9.162;2023-04-24T14:12:38;96891.34;;;10.46;80.17
498;BME280;39559;48.630;9.162;2023-04-24T14:15:05;96907.38;;;10.54;78.12
498;BME280;39559;48.630;9.162;2023-04-24T14:17:30;96905.25;;;10.45;79.66
498;BME280;39559;48.630;9.162;2023-04-24T14:22:00;96898.56;;;10.41;79.43
498;BME280;39559;48.630;9.162;2023-04-24T14:24:26;96902.50;;;10.30;80.24
498;BME280;39559;48.630;9.162;2023-04-24T14:26:52;96903.72;;;10.23;77.51
498;BME280;39559;48.630;9.162;2023-04-24T14:29:17;96905.78;;;10.16;78.45
498;BME280;39559;48.630;9.162;2023-04-24T14:31:44;96909.06;;;10.03;79.09
498;BME280;39559;48.630;9.162;2023-04-24T14:34:10;96911.91;;;10.15;77.00